createdAt,value
2022-08-16T00:01:44.263Z,3.80
2022-08-16T00:04:35.016Z,4.10
2022-08-16T00:07:26.329Z,4.60
2022-08-16T00:10:21.215Z,4.30
2022-08-16T00:13:13.115Z,4.40
2022-08-16T00:17:06.715Z,4.50
2022-08-16T00:19:22.560Z,4.30
2022-08-16T00:22:15.531Z,4.10
2022-08-16T00:25:10.106Z,4.20
2022-08-16T00:28:01.708Z,4.20
2022-08-16T00:30:52.182Z,4.30
2022-08-16T00:33:50.113Z,4.60
2022-08-16T00:36:40.206Z,4.50
2022-08-16T00:39:39.940Z,4.40
2022-08-16T00:42:32.643Z,4.00
2022-08-16T00:45:35.593Z,4.40
2022-08-16T00:48:30.298Z,4.10
2022-08-16T00:51:25.170Z,4.20
2022-08-16T00:54:23.382Z,4.00
2022-08-16T00:57:16.224Z,4.30
2022-08-16T01:00:08.987Z,4.20
2022-08-16T01:03:11.657Z,4.30
2022-08-16T01:06:40.650Z,4.10
2022-08-16T01:09:13.126Z,4.50
2022-08-16T01:12:08.445Z,4.30
2022-08-16T01:15:01.313Z,4.40
2022-08-16T01:17:56.179Z,4.40
2022-08-16T01:20:53.378Z,4.30
2022-08-16T01:24:02.488Z,4.40
2022-08-16T01:26:57.702Z,4.20
2022-08-16T01:30:00.397Z,4.30
2022-08-16T01:32:59.599Z,4.50
2022-08-16T01:35:58.697Z,5.00
2022-08-16T01:38:57.214Z,4.40
2022-08-16T01:41:49.913Z,4.30
2022-08-16T01:44:41.132Z,4.50
2022-08-16T01:47:35.397Z,4.40
2022-08-16T01:50:42.605Z,4.50
2022-08-16T01:53:40.729Z,4.40
2022-08-16T01:56:41.449Z,4.10
2022-08-16T01:59:35.390Z,4.30
2022-08-16T02:02:28.805Z,4.30
2022-08-16T02:05:18.947Z,4.20
2022-08-16T02:08:32.969Z,4.20
2022-08-16T02:11:24.423Z,4.10
2022-08-16T02:14:18.409Z,4.30
2022-08-16T02:17:13.346Z,4.10
2022-08-16T02:20:11.381Z,4.20
2022-08-16T02:23:05.617Z,4.10
2022-08-16T02:25:56.851Z,4.10
2022-08-16T02:28:52.794Z,4.20
2022-08-16T02:32:03.055Z,4.20
2022-08-16T02:34:56.456Z,4.10
2022-08-16T02:37:52.434Z,4.30
2022-08-16T02:40:47.803Z,4.20
2022-08-16T02:43:40.244Z,3.90
2022-08-16T02:46:33.647Z,4.10
2022-08-16T02:49:32.261Z,4.20
2022-08-16T02:52:36.492Z,4.00
2022-08-16T02:55:40.876Z,4.10
2022-08-16T02:58:32.794Z,4.10
2022-08-16T03:01:33.741Z,4.10
2022-08-16T03:04:50.324Z,3.80
2022-08-16T03:07:50.491Z,4.10
2022-08-16T03:10:43.009Z,3.90
2022-08-16T03:13:40.294Z,4.40
2022-08-16T03:16:38.222Z,4.40
2022-08-16T03:19:47.175Z,5.50
2022-08-16T03:22:45.377Z,5.00
2022-08-16T03:25:43.185Z,4.60
2022-08-16T03:28:40.430Z,4.70
2022-08-16T03:31:34.578Z,4.10
2022-08-16T03:34:33.329Z,4.50
2022-08-16T03:37:24.858Z,4.20
2022-08-16T03:40:23.296Z,4.20
2022-08-16T03:43:24.550Z,4.20
2022-08-16T03:46:47.826Z,4.30
2022-08-16T03:49:44.433Z,4.40
2022-08-16T03:52:35.643Z,3.80
2022-08-16T03:55:31.355Z,4.00
2022-08-16T03:58:37.296Z,4.30
2022-08-16T04:01:29.950Z,4.10
2022-08-16T04:04:25.067Z,4.00
2022-08-16T04:07:25.780Z,4.20
2022-08-16T04:10:36.872Z,4.10
2022-08-16T04:14:01.222Z,3.90
2022-08-16T04:16:39.718Z,4.10
2022-08-16T04:19:51.704Z,3.80
2022-08-16T04:22:48.833Z,4.10
2022-08-16T04:25:40.988Z,4.20
2022-08-16T04:28:55.900Z,3.90
2022-08-16T04:31:43.696Z,3.80
2022-08-16T04:34:36.941Z,3.90
2022-08-16T04:37:29.574Z,3.90
2022-08-16T04:40:29.875Z,4.00
2022-08-16T04:43:21.081Z,4.00
2022-08-16T04:47:00.328Z,4.10
2022-08-16T04:49:38.528Z,4.10
2022-08-16T04:52:37.903Z,3.80
2022-08-16T04:55:37.819Z,4.20
2022-08-16T04:58:38.335Z,3.90
2022-08-16T05:01:55.971Z,4.10
2022-08-16T05:04:46.928Z,4.20
2022-08-16T05:07:38.030Z,3.80
2022-08-16T05:10:47.949Z,3.90
2022-08-16T05:13:42.599Z,4.10
2022-08-16T05:16:35.899Z,4.10
2022-08-16T05:19:36.096Z,4.00
2022-08-16T05:22:38.576Z,3.90
2022-08-16T05:25:40.954Z,4.00
2022-08-16T05:28:40.036Z,4.00
2022-08-16T05:31:32.427Z,3.50
2022-08-16T05:34:23.485Z,3.80
2022-08-16T05:37:16.141Z,3.80
2022-08-16T05:40:10.876Z,3.80
2022-08-16T05:43:04.340Z,3.80
2022-08-16T05:45:55.867Z,3.90
2022-08-16T05:48:55.042Z,4.10
2022-08-16T05:51:51.405Z,4.10
2022-08-16T05:54:46.636Z,4.50
2022-08-16T05:57:37.807Z,3.90
2022-08-16T06:00:33.215Z,3.90
2022-08-16T06:03:24.162Z,3.90
2022-08-16T06:06:28.067Z,4.00
2022-08-16T06:09:20.561Z,4.10
2022-08-16T06:12:12.723Z,4.20
2022-08-16T06:15:20.691Z,4.40
2022-08-16T06:18:10.747Z,4.30
2022-08-16T06:21:02.857Z,4.30
2022-08-16T06:23:54.316Z,4.50
2022-08-16T06:26:57.715Z,4.10
2022-08-16T06:29:50.719Z,4.20
2022-08-16T06:32:43.771Z,4.40
2022-08-16T06:35:41.495Z,4.50
2022-08-16T06:38:34.493Z,5.00
2022-08-16T06:41:39.844Z,4.30
2022-08-16T06:44:39.239Z,4.60
2022-08-16T06:47:53.790Z,4.50
2022-08-16T06:50:44.957Z,5.10
2022-08-16T06:53:38.522Z,5.10
2022-08-16T06:56:29.422Z,4.60
2022-08-16T06:59:29.362Z,5.20
2022-08-16T07:02:33.111Z,5.10
2022-08-16T07:05:27.044Z,4.70
2022-08-16T07:08:35.175Z,3.90
2022-08-16T07:11:45.365Z,4.20
2022-08-16T07:14:39.566Z,4.40
2022-08-16T07:17:32.878Z,4.10
2022-08-16T07:20:35.386Z,3.80
2022-08-16T07:23:38.847Z,3.60
2022-08-16T07:26:30.930Z,3.80
2022-08-16T07:29:21.688Z,3.70
2022-08-16T07:32:12.420Z,3.40
2022-08-16T07:35:06.329Z,3.60
2022-08-16T07:37:59.578Z,3.50
2022-08-16T07:41:11.021Z,3.40
2022-08-16T07:44:16.133Z,3.80
2022-08-16T07:47:07.966Z,4.20
2022-08-16T07:50:07.693Z,3.90
2022-08-16T07:53:00.218Z,3.70
2022-08-16T07:55:52.977Z,3.80
2022-08-16T07:58:49.027Z,4.10
2022-08-16T08:01:45.846Z,4.90
2022-08-16T08:04:36.711Z,4.10
2022-08-16T08:07:28.647Z,4.00
2022-08-16T08:10:29.589Z,4.40
2022-08-16T08:13:41.767Z,4.20
2022-08-16T08:16:32.318Z,4.10
2022-08-16T08:19:24.630Z,3.90
2022-08-16T08:22:19.456Z,4.40
2022-08-16T08:25:16.285Z,4.00
2022-08-16T08:28:10.944Z,4.20
2022-08-16T08:31:04.355Z,4.30
2022-08-16T08:34:00.607Z,4.10
2022-08-16T08:36:56.529Z,4.30
2022-08-16T08:40:08.685Z,4.50
2022-08-16T08:43:11.863Z,4.00
2022-08-16T08:46:17.786Z,4.00
2022-08-16T08:49:11.254Z,4.20
2022-08-16T08:52:08.015Z,4.00
2022-08-16T08:55:05.035Z,4.30
2022-08-16T08:58:00.732Z,4.20
2022-08-16T09:01:05.753Z,4.10
2022-08-16T09:04:03.703Z,4.20
2022-08-16T09:06:55.296Z,3.50
2022-08-16T09:09:47.802Z,3.90
2022-08-16T09:12:39.039Z,3.90
2022-08-16T09:15:33.588Z,4.10
2022-08-16T09:18:27.180Z,3.60
2022-08-16T09:21:31.363Z,4.30
2022-08-16T09:24:46.727Z,4.10
2022-08-16T09:27:56.498Z,4.00
2022-08-16T09:30:44.169Z,4.10
2022-08-16T09:33:37.337Z,3.60
2022-08-16T09:36:31.807Z,3.90
2022-08-16T09:39:23.730Z,3.70
2022-08-16T09:42:15.731Z,3.80
2022-08-16T09:45:16.572Z,3.20
2022-08-16T09:48:09.249Z,3.20
2022-08-16T09:50:59.758Z,3.50
2022-08-16T09:53:53.929Z,3.60
2022-08-16T09:56:53.455Z,3.20
2022-08-16T09:59:44.658Z,3.30
2022-08-16T10:02:44.113Z,3.20
2022-08-16T10:05:37.372Z,2.90
2022-08-16T10:08:27.751Z,3.20
2022-08-16T10:11:49.840Z,3.30
2022-08-16T10:14:45.881Z,3.00
2022-08-16T10:17:36.416Z,2.80
2022-08-16T10:20:27.922Z,3.20
2022-08-16T10:23:18.395Z,2.90
2022-08-16T10:27:20.521Z,2.80
2022-08-16T10:29:21.077Z,3.50
2022-08-16T10:32:11.279Z,2.90
2022-08-16T10:35:03.327Z,2.70
2022-08-16T10:37:53.826Z,3.00
2022-08-16T10:40:45.679Z,3.10
2022-08-16T10:43:36.694Z,2.80
2022-08-16T10:46:39.246Z,2.80
2022-08-16T10:49:32.926Z,3.00
2022-08-16T10:52:24.754Z,3.00
2022-08-16T10:58:34.684Z,3.30
2022-08-16T11:01:39.808Z,3.50
2022-08-16T11:07:52.059Z,3.70
2022-08-16T11:11:06.484Z,3.00
2022-08-16T11:14:06.169Z,3.30
2022-08-16T11:17:10.497Z,3.40
2022-08-16T11:20:41.412Z,3.10
2022-08-16T11:23:12.105Z,3.40
2022-08-16T11:26:10.408Z,3.20
2022-08-16T11:29:14.246Z,3.40
2022-08-16T11:32:06.106Z,3.50
2022-08-16T11:35:13.446Z,4.10
2022-08-16T11:38:47.285Z,4.40
2022-08-16T11:41:17.682Z,3.80
2022-08-16T11:44:09.449Z,4.00
2022-08-16T11:47:04.142Z,3.80
2022-08-16T11:49:54.872Z,3.90
2022-08-16T11:52:46.734Z,4.40
2022-08-16T11:55:40.358Z,3.70
2022-08-16T11:58:35.341Z,3.80
2022-08-16T12:01:29.642Z,3.50
2022-08-16T12:04:35.171Z,3.30
2022-08-16T12:07:25.678Z,3.80
2022-08-16T12:10:18.404Z,3.30
2022-08-16T12:13:13.988Z,3.40
2022-08-16T12:16:04.514Z,3.50
2022-08-16T12:18:54.541Z,3.60
2022-08-16T12:21:58.055Z,4.00
2022-08-16T12:24:51.240Z,3.50
2022-08-16T12:27:49.666Z,3.80
2022-08-16T12:30:42.857Z,3.40
2022-08-16T12:33:42.736Z,3.60
2022-08-16T12:36:35.266Z,3.50
2022-08-16T12:39:29.155Z,3.50
2022-08-16T12:42:20.842Z,3.50
2022-08-16T12:45:15.449Z,4.00
2022-08-16T12:48:36.049Z,3.70
2022-08-16T12:51:32.883Z,3.30
2022-08-16T12:54:39.787Z,3.50
2022-08-16T12:57:36.540Z,3.50
2022-08-16T13:00:33.622Z,3.50
2022-08-16T13:03:23.943Z,3.30
2022-08-16T13:06:20.203Z,3.70
2022-08-16T13:09:26.732Z,3.50
2022-08-16T13:12:25.063Z,3.20
2022-08-16T13:15:18.395Z,3.50
2022-08-16T13:18:23.861Z,3.60
2022-08-16T13:21:17.925Z,3.70
2022-08-16T13:24:08.783Z,3.70
2022-08-16T13:26:59.544Z,3.30
2022-08-16T13:29:57.576Z,3.20
2022-08-16T13:32:52.102Z,3.60
2022-08-16T13:35:44.924Z,3.50
2022-08-16T13:38:37.880Z,3.50
2022-08-16T13:41:30.341Z,3.50
2022-08-16T13:44:21.565Z,3.60
2022-08-16T13:47:11.528Z,3.50
2022-08-16T13:50:03.508Z,3.50
2022-08-16T13:52:53.591Z,3.70
2022-08-16T13:55:47.522Z,4.10
2022-08-16T13:58:54.845Z,3.50
2022-08-16T14:01:55.550Z,3.70
2022-08-16T14:04:47.426Z,3.80
2022-08-16T14:07:55.440Z,3.10
2022-08-16T14:10:45.838Z,3.60
2022-08-16T14:13:36.066Z,3.50
2022-08-16T14:16:33.686Z,4.30
2022-08-16T14:19:26.405Z,3.20
2022-08-16T14:22:31.154Z,3.50
2022-08-16T14:25:28.272Z,3.60
2022-08-16T14:28:19.036Z,3.60
2022-08-16T14:31:13.840Z,3.70
2022-08-16T14:34:06.494Z,3.30
2022-08-16T14:37:01.182Z,3.50
2022-08-16T14:39:52.443Z,3.70
2022-08-16T14:42:44.189Z,3.50
2022-08-16T14:45:36.913Z,3.30
2022-08-16T14:48:26.863Z,3.30
2022-08-16T14:51:18.983Z,3.70
2022-08-16T14:54:15.180Z,3.80
2022-08-16T14:57:06.023Z,3.60
2022-08-16T15:00:00.751Z,3.40
2022-08-16T15:02:58.091Z,3.40
2022-08-16T15:05:48.276Z,3.30
2022-08-16T15:08:40.338Z,3.10
2022-08-16T15:11:31.036Z,3.30
2022-08-16T15:14:23.130Z,3.20
2022-08-16T15:17:15.064Z,3.20
2022-08-16T15:20:11.089Z,4.00
2022-08-16T15:23:06.014Z,3.20
2022-08-16T15:26:03.060Z,3.50
2022-08-16T15:28:54.238Z,3.70
2022-08-16T15:31:48.366Z,3.50
2022-08-16T15:34:44.719Z,3.70
2022-08-16T15:37:42.624Z,3.60
2022-08-16T15:40:35.315Z,4.00
2022-08-16T15:43:27.153Z,3.10
2022-08-16T15:46:35.705Z,3.60
2022-08-16T15:49:38.912Z,3.50
2022-08-16T15:52:38.993Z,3.40
2022-08-16T15:55:35.141Z,3.30
2022-08-16T15:58:34.866Z,3.40
2022-08-16T16:01:26.112Z,3.30
2022-08-16T16:04:22.860Z,3.60
2022-08-16T16:07:13.325Z,3.40
2022-08-16T16:10:07.818Z,4.10
2022-08-16T16:12:58.624Z,4.20
2022-08-16T16:15:51.992Z,3.50
2022-08-16T16:18:48.715Z,3.20
2022-08-16T16:21:39.369Z,3.60
2022-08-16T16:24:30.777Z,3.70
2022-08-16T16:27:22.769Z,4.10
2022-08-16T16:30:33.037Z,4.00
2022-08-16T16:33:28.774Z,3.70
2022-08-16T16:36:24.346Z,4.30
2022-08-16T16:39:18.149Z,3.90
2022-08-16T16:42:08.704Z,3.80
2022-08-16T16:45:19.191Z,3.70
2022-08-16T16:48:12.024Z,3.90
2022-08-16T16:51:09.154Z,3.90
2022-08-16T16:54:03.775Z,4.10
2022-08-16T16:56:54.423Z,3.70
2022-08-16T16:59:44.502Z,3.90
2022-08-16T17:02:41.768Z,3.50
2022-08-16T17:05:40.694Z,4.00
2022-08-16T17:08:30.553Z,3.70
2022-08-16T17:11:20.467Z,3.50
2022-08-16T17:14:32.120Z,3.90
2022-08-16T17:17:21.743Z,3.50
2022-08-16T17:20:14.029Z,4.10
2022-08-16T17:23:05.088Z,4.00
2022-08-16T17:25:55.493Z,3.80
2022-08-16T17:28:59.934Z,3.70
2022-08-16T17:31:53.019Z,4.20
2022-08-16T17:34:45.492Z,3.90
2022-08-16T17:37:48.756Z,4.40
2022-08-16T17:40:58.123Z,4.10
2022-08-16T17:43:49.652Z,5.40
2022-08-16T17:46:50.683Z,7.30
2022-08-16T17:49:41.854Z,6.90
2022-08-16T17:52:32.212Z,6.10
2022-08-16T17:55:27.682Z,5.80
2022-08-16T17:58:22.657Z,6.80
2022-08-16T18:01:14.393Z,5.40
2022-08-16T18:04:08.275Z,5.10
2022-08-16T18:07:00.169Z,5.30
2022-08-16T18:09:52.304Z,5.30
2022-08-16T18:12:50.733Z,4.90
2022-08-16T18:15:46.302Z,5.00
2022-08-16T18:18:36.255Z,4.20
2022-08-16T18:21:43.571Z,4.90
2022-08-16T18:24:35.098Z,4.90
2022-08-16T18:27:27.254Z,4.50
2022-08-16T18:30:17.735Z,4.40
2022-08-16T18:33:07.956Z,4.70
2022-08-16T18:35:58.465Z,4.80
2022-08-16T18:38:48.189Z,4.70
2022-08-16T18:41:38.563Z,4.70
2022-08-16T18:44:33.321Z,5.00
2022-08-16T18:47:24.647Z,5.00
2022-08-16T18:50:14.348Z,5.20
2022-08-16T18:53:06.152Z,5.10
2022-08-16T18:55:59.000Z,4.80
2022-08-16T18:58:49.012Z,5.40
2022-08-16T19:01:39.215Z,5.80
2022-08-16T19:04:56.152Z,5.80
2022-08-16T19:07:41.993Z,4.90
2022-08-16T19:10:33.039Z,6.60
2022-08-16T19:13:25.524Z,5.10
2022-08-16T19:16:16.486Z,5.00
2022-08-16T19:19:11.789Z,4.90
2022-08-16T19:22:01.482Z,4.60
2022-08-16T19:24:51.102Z,4.40
2022-08-16T19:27:42.706Z,5.20
2022-08-16T19:30:32.836Z,4.70
2022-08-16T19:33:23.121Z,4.50
2022-08-16T19:36:31.038Z,4.00
2022-08-16T19:39:22.362Z,4.70
2022-08-16T19:42:17.922Z,4.90
2022-08-16T19:45:09.587Z,4.70
2022-08-16T19:48:03.698Z,5.00
2022-08-16T19:50:53.830Z,4.20
2022-08-16T19:53:44.203Z,5.10
2022-08-16T19:56:34.148Z,4.50
2022-08-16T19:59:40.479Z,4.50
2022-08-16T20:02:36.430Z,5.50
2022-08-16T20:05:29.979Z,5.00
2022-08-16T20:08:22.277Z,5.20
2022-08-16T20:11:12.381Z,6.00
2022-08-16T20:14:02.343Z,6.40
2022-08-16T20:16:52.714Z,5.30
2022-08-16T20:19:44.070Z,5.60
2022-08-16T20:22:52.977Z,5.40
2022-08-16T20:25:49.631Z,5.30
2022-08-16T20:28:52.605Z,5.70
2022-08-16T20:31:44.543Z,4.80
2022-08-16T20:34:35.086Z,4.90
2022-08-16T20:37:25.353Z,5.60
2022-08-16T20:40:34.419Z,5.20
2022-08-16T20:43:25.847Z,5.30
2022-08-16T20:46:16.872Z,5.40
2022-08-16T20:49:08.965Z,5.00
2022-08-16T20:52:00.498Z,5.60
2022-08-16T20:54:50.358Z,5.70
2022-08-16T20:57:40.797Z,5.60
2022-08-16T21:00:32.305Z,5.70
2022-08-16T21:03:22.671Z,6.30
2022-08-16T21:06:12.789Z,5.80
2022-08-16T21:09:04.923Z,6.50
2022-08-16T21:11:56.054Z,5.90
2022-08-16T21:14:48.365Z,5.60
2022-08-16T21:17:39.137Z,5.50
2022-08-16T21:20:31.145Z,6.10
2022-08-16T21:23:21.273Z,5.40
2022-08-16T21:26:11.882Z,5.50
2022-08-16T21:29:02.693Z,5.70
2022-08-16T21:31:57.099Z,5.60
2022-08-16T21:34:50.032Z,5.60
2022-08-16T21:37:40.470Z,5.30
2022-08-16T21:40:32.478Z,7.70
2022-08-16T21:43:24.541Z,6.50
2022-08-16T21:46:15.032Z,5.50
2022-08-16T21:49:06.046Z,5.20
2022-08-16T21:51:57.109Z,5.30
2022-08-16T21:54:47.114Z,6.10
2022-08-16T21:57:37.383Z,7.00
2022-08-16T22:00:28.326Z,5.80
2022-08-16T22:03:19.578Z,5.10
2022-08-16T22:06:13.041Z,5.40
2022-08-16T22:09:05.067Z,5.30
2022-08-16T22:11:55.962Z,5.30
2022-08-16T22:14:46.140Z,5.30
2022-08-16T22:17:35.797Z,5.20
2022-08-16T22:20:29.416Z,5.20
2022-08-16T22:23:23.023Z,5.00
2022-08-16T22:26:14.807Z,5.30
2022-08-16T22:29:06.964Z,4.90
2022-08-16T22:31:56.969Z,5.10
2022-08-16T22:34:50.121Z,5.40
2022-08-16T22:37:41.907Z,5.40
2022-08-16T22:40:53.445Z,5.10
2022-08-16T22:43:46.046Z,5.30
2022-08-16T22:46:37.875Z,5.20
2022-08-16T22:49:29.047Z,5.00
2022-08-16T22:52:48.896Z,5.30
2022-08-16T22:55:30.093Z,4.90
2022-08-16T22:58:20.535Z,4.80
2022-08-16T23:01:27.299Z,4.90
2022-08-16T23:04:18.092Z,4.60
2022-08-16T23:07:08.619Z,4.90
2022-08-16T23:10:01.563Z,4.90
2022-08-16T23:12:53.509Z,4.80
2022-08-16T23:15:46.720Z,5.10
2022-08-16T23:18:42.346Z,4.90
2022-08-16T23:21:33.096Z,5.70
2022-08-16T23:24:27.645Z,4.50
2022-08-16T23:27:17.682Z,4.90
2022-08-16T23:30:09.205Z,4.60
2022-08-16T23:33:01.234Z,4.40
2022-08-16T23:35:53.491Z,4.80
2022-08-16T23:38:44.407Z,5.00
2022-08-16T23:41:35.352Z,5.30
2022-08-16T23:44:42.347Z,5.00
2022-08-16T23:47:36.088Z,5.40
2022-08-16T23:50:28.222Z,5.10
2022-08-16T23:53:20.918Z,5.10
2022-08-16T23:56:15.535Z,5.40
2022-08-16T23:59:05.852Z,5.50
